createdAt,value
2018-07-20T00:01:10.723Z,6.23
2018-07-20T00:03:39.020Z,5.60
2018-07-20T00:06:07.314Z,5.53
2018-07-20T00:08:35.600Z,5.63
2018-07-20T00:11:03.878Z,6.03
2018-07-20T00:13:32.282Z,5.80
2018-07-20T00:16:00.542Z,5.93
2018-07-20T00:18:28.843Z,6.10
2018-07-20T00:20:57.114Z,6.70
2018-07-20T00:23:25.385Z,6.17
2018-07-20T00:25:53.659Z,5.63
2018-07-20T00:28:21.975Z,6.03
2018-07-20T00:30:50.242Z,5.93
2018-07-20T00:33:18.518Z,6.40
2018-07-20T00:35:46.815Z,6.13
2018-07-20T00:38:15.081Z,6.60
2018-07-20T00:40:43.356Z,6.23
2018-07-20T00:43:11.644Z,6.00
2018-07-20T00:45:39.951Z,6.03
2018-07-20T00:48:08.224Z,6.23
2018-07-20T00:50:36.518Z,6.00
2018-07-20T00:53:04.858Z,5.90
2018-07-20T00:55:33.159Z,5.83
2018-07-20T00:58:01.169Z,6.07
2018-07-20T01:00:29.477Z,6.03
2018-07-20T01:02:57.895Z,5.40
2018-07-20T01:05:25.905Z,6.00
2018-07-20T01:07:54.202Z,5.60
2018-07-20T01:10:22.563Z,6.50
2018-07-20T01:12:50.861Z,5.50
2018-07-20T01:15:19.129Z,6.10
2018-07-20T01:17:47.400Z,5.90
2018-07-20T01:20:16.218Z,5.87
2018-07-20T01:22:44.506Z,5.63
2018-07-20T01:25:12.775Z,5.60
2018-07-20T01:27:41.078Z,5.50
2018-07-20T01:30:09.087Z,5.60
2018-07-20T01:32:37.365Z,5.60
2018-07-20T01:35:05.638Z,6.57
2018-07-20T01:37:33.930Z,5.57
2018-07-20T01:40:02.254Z,5.93
2018-07-20T01:42:30.527Z,5.30
2018-07-20T01:44:58.819Z,6.07
2018-07-20T01:47:27.103Z,5.77
2018-07-20T01:49:55.434Z,6.00
2018-07-20T01:52:23.724Z,5.70
2018-07-20T01:54:51.992Z,5.53
2018-07-20T01:57:20.268Z,6.60
2018-07-20T01:59:48.527Z,5.80
2018-07-20T02:02:16.794Z,6.10
2018-07-20T02:04:45.062Z,5.97
2018-07-20T02:07:13.358Z,5.73
2018-07-20T02:09:41.646Z,5.97
2018-07-20T02:12:09.909Z,5.87
2018-07-20T02:14:38.182Z,5.90
2018-07-20T02:17:06.457Z,5.67
2018-07-20T02:19:34.738Z,5.80
2018-07-20T02:22:03.022Z,5.93
2018-07-20T02:24:31.301Z,5.33
2018-07-20T02:26:59.579Z,5.60
2018-07-20T02:29:27.916Z,5.70
2018-07-20T02:31:56.151Z,5.50
2018-07-20T02:34:24.440Z,5.17
2018-07-20T02:36:52.737Z,6.03
2018-07-20T02:39:21.037Z,6.27
2018-07-20T02:41:49.291Z,6.60
2018-07-20T02:44:17.577Z,6.20
2018-07-20T02:46:45.847Z,6.00
2018-07-20T02:49:14.131Z,6.47
2018-07-20T02:51:42.409Z,6.13
2018-07-20T02:54:11.702Z,6.30
2018-07-20T02:56:39.967Z,6.13
2018-07-20T02:59:08.259Z,6.43
2018-07-20T03:01:36.539Z,6.00
2018-07-20T03:04:04.832Z,5.97
2018-07-20T03:06:33.106Z,5.37
2018-07-20T03:09:01.467Z,6.20
2018-07-20T03:11:29.675Z,5.43
2018-07-20T03:13:57.937Z,5.43
2018-07-20T03:16:26.218Z,5.73
2018-07-20T03:18:54.499Z,5.53
2018-07-20T03:21:22.774Z,5.80
2018-07-20T03:23:51.040Z,5.53
2018-07-20T03:26:19.336Z,5.17
2018-07-20T03:28:47.615Z,5.40
2018-07-20T03:31:15.887Z,5.77
2018-07-20T03:33:44.187Z,5.63
2018-07-20T03:36:12.519Z,6.00
2018-07-20T03:38:40.790Z,5.40
2018-07-20T03:41:09.106Z,6.10
2018-07-20T03:43:37.481Z,5.80
2018-07-20T03:46:05.751Z,5.57
2018-07-20T03:48:34.034Z,6.20
2018-07-20T03:51:02.318Z,6.17
2018-07-20T03:53:30.794Z,5.83
2018-07-20T03:55:59.210Z,5.57
2018-07-20T03:58:27.496Z,5.67
2018-07-20T04:00:55.757Z,5.80
2018-07-20T04:03:37.318Z,5.77
2018-07-20T04:06:05.578Z,5.50
2018-07-20T04:08:33.891Z,5.63
2018-07-20T04:11:02.391Z,6.03
2018-07-20T04:13:30.692Z,5.57
2018-07-20T04:15:58.992Z,5.27
2018-07-20T04:18:27.263Z,5.47
2018-07-20T04:20:55.574Z,6.00
2018-07-20T04:23:23.850Z,5.53
2018-07-20T04:25:52.279Z,6.07
2018-07-20T04:28:20.637Z,6.23
2018-07-20T04:30:48.904Z,5.73
2018-07-20T04:33:17.264Z,5.97
2018-07-20T04:35:45.533Z,5.63
2018-07-20T04:38:13.831Z,5.50
2018-07-20T04:40:42.147Z,5.90
2018-07-20T04:43:10.470Z,5.23
2018-07-20T04:45:38.464Z,5.23
2018-07-20T04:48:06.743Z,5.80
2018-07-20T04:50:35.030Z,5.70
2018-07-20T04:53:03.330Z,5.47
2018-07-20T04:55:31.601Z,5.40
2018-07-20T04:57:59.881Z,6.00
2018-07-20T05:00:28.902Z,5.73
2018-07-20T05:02:56.921Z,5.63
2018-07-20T05:05:25.397Z,5.90
2018-07-20T05:07:53.695Z,5.70
2018-07-20T05:10:21.946Z,5.60
2018-07-20T05:12:50.197Z,6.30
2018-07-20T05:15:18.461Z,5.80
2018-07-20T05:17:46.749Z,5.93
2018-07-20T05:20:15.014Z,5.60
2018-07-20T05:22:43.277Z,6.53
2018-07-20T05:25:12.779Z,6.47
2018-07-20T05:27:41.032Z,6.40
2018-07-20T05:30:09.289Z,6.53
2018-07-20T05:32:37.604Z,6.83
2018-07-20T05:35:05.816Z,6.57
2018-07-20T05:37:34.079Z,5.80
2018-07-20T05:40:02.455Z,6.17
2018-07-20T05:42:30.719Z,5.37
2018-07-20T05:44:58.967Z,5.57
2018-07-20T05:47:27.222Z,5.67
2018-07-20T05:49:55.479Z,5.70
2018-07-20T05:52:23.733Z,5.73
2018-07-20T05:54:51.986Z,5.60
2018-07-20T05:57:20.239Z,5.57
2018-07-20T05:59:48.494Z,5.73
2018-07-20T06:02:16.990Z,5.57
2018-07-20T06:04:45.050Z,5.67
2018-07-20T06:07:13.309Z,5.50
2018-07-20T06:09:41.590Z,5.23
2018-07-20T06:12:10.451Z,5.37
2018-07-20T06:14:38.723Z,5.00
2018-07-20T06:17:06.984Z,4.97
2018-07-20T06:19:35.263Z,5.00
2018-07-20T06:22:03.707Z,5.07
2018-07-20T06:24:32.004Z,5.03
2018-07-20T06:27:00.277Z,5.20
2018-07-20T06:29:28.541Z,5.00
2018-07-20T06:31:56.880Z,5.17
2018-07-20T06:34:25.184Z,5.53
2018-07-20T06:36:53.454Z,5.83
2018-07-20T06:39:21.738Z,5.83
2018-07-20T06:41:50.004Z,6.00
2018-07-20T06:44:18.281Z,6.47
2018-07-20T06:46:46.550Z,6.67
2018-07-20T06:49:14.838Z,6.90
2018-07-20T06:51:43.114Z,6.73
2018-07-20T06:54:11.390Z,6.60
2018-07-20T06:56:39.669Z,6.77
2018-07-20T06:59:07.940Z,6.60
2018-07-20T07:01:36.208Z,6.03
2018-07-20T07:04:04.209Z,6.10
2018-07-20T07:06:32.489Z,5.50
2018-07-20T07:09:00.733Z,6.80
2018-07-20T07:11:29.010Z,6.17
2018-07-20T07:13:57.314Z,7.15
2018-07-20T07:16:25.617Z,6.50
2018-07-20T07:18:53.887Z,6.37
2018-07-20T07:21:22.142Z,5.67
2018-07-20T07:23:50.391Z,6.05
2018-07-20T07:26:18.656Z,6.40
2018-07-20T07:28:46.913Z,6.28
2018-07-20T07:31:15.175Z,6.17
2018-07-20T07:33:43.449Z,6.03
2018-07-20T07:36:11.697Z,6.05
2018-07-20T07:38:39.993Z,6.00
2018-07-20T07:41:08.475Z,5.80
2018-07-20T07:43:36.737Z,6.62
2018-07-20T07:46:05.030Z,6.72
2018-07-20T07:48:33.275Z,5.80
2018-07-20T07:51:01.528Z,6.40
2018-07-20T07:53:29.814Z,6.45
2018-07-20T07:55:58.095Z,5.50
2018-07-20T07:58:26.087Z,5.90
2018-07-20T08:00:54.331Z,6.53
2018-07-20T08:03:22.632Z,6.00
2018-07-20T08:05:50.619Z,5.92
2018-07-20T08:08:18.900Z,6.12
2018-07-20T08:10:47.210Z,6.35
2018-07-20T08:13:15.492Z,6.87
2018-07-20T08:15:44.128Z,6.35
2018-07-20T08:18:12.376Z,6.00
2018-07-20T08:20:40.636Z,6.22
2018-07-20T08:23:08.918Z,6.12
2018-07-20T08:25:37.180Z,6.40
2018-07-20T08:28:05.653Z,6.65
2018-07-20T08:30:33.935Z,6.10
2018-07-20T08:33:02.259Z,6.22
2018-07-20T08:35:30.545Z,5.60
2018-07-20T08:37:58.819Z,5.42
2018-07-20T08:40:27.089Z,6.25
2018-07-20T08:42:55.379Z,5.60
2018-07-20T08:45:23.665Z,5.67
2018-07-20T08:47:51.936Z,5.47
2018-07-20T08:50:20.193Z,5.60
2018-07-20T08:52:48.498Z,5.28
2018-07-20T08:55:16.783Z,5.53
2018-07-20T08:57:45.057Z,5.05
2018-07-20T09:00:13.346Z,5.35
2018-07-20T09:02:41.598Z,5.65
2018-07-20T09:05:09.890Z,5.28
2018-07-20T09:07:38.150Z,5.20
2018-07-20T09:10:06.427Z,5.90
2018-07-20T09:12:34.761Z,5.78
2018-07-20T09:15:03.048Z,5.53
2018-07-20T09:17:31.306Z,5.72
2018-07-20T09:19:59.758Z,5.47
2018-07-20T09:22:28.050Z,5.25
2018-07-20T09:24:56.317Z,4.85
2018-07-20T09:27:24.574Z,5.60
2018-07-20T09:29:52.882Z,5.33
2018-07-20T09:32:21.214Z,5.12
2018-07-20T09:34:49.493Z,5.50
2018-07-20T09:37:17.775Z,5.50
2018-07-20T09:39:46.046Z,4.83
2018-07-20T09:42:14.349Z,5.40
2018-07-20T09:44:42.627Z,4.80
2018-07-20T09:47:10.901Z,4.97
2018-07-20T09:49:39.306Z,5.50
2018-07-20T09:52:07.631Z,5.17
2018-07-20T09:54:35.909Z,5.12
2018-07-20T09:57:04.189Z,5.08
2018-07-20T09:59:32.503Z,5.12
2018-07-20T10:02:00.782Z,4.70
2018-07-20T10:04:29.042Z,4.90
2018-07-20T10:06:57.306Z,5.10
2018-07-20T10:09:25.589Z,4.92
2018-07-20T10:11:53.856Z,5.35
2018-07-20T10:14:22.122Z,4.92
2018-07-20T10:16:50.382Z,5.25
2018-07-20T10:19:18.644Z,5.42
2018-07-20T10:21:46.930Z,4.95
2018-07-20T10:24:15.196Z,4.80
2018-07-20T10:26:43.565Z,5.12
2018-07-20T10:29:11.829Z,4.72
2018-07-20T10:31:40.093Z,4.90
2018-07-20T10:34:08.496Z,4.62
2018-07-20T10:36:36.776Z,4.50
2018-07-20T10:39:07.246Z,4.40
2018-07-20T10:41:35.754Z,4.58
2018-07-20T10:44:04.062Z,4.83
2018-07-20T10:46:32.324Z,4.90
2018-07-20T10:49:00.793Z,3.55
2018-07-20T10:51:29.073Z,3.52
2018-07-20T10:53:57.438Z,3.10
2018-07-20T10:56:25.783Z,3.37
2018-07-20T10:58:54.723Z,3.58
2018-07-20T11:01:23.080Z,3.52
2018-07-20T11:03:51.434Z,3.60
2018-07-20T11:06:19.685Z,3.30
2018-07-20T11:08:47.950Z,3.37
2018-07-20T11:11:16.203Z,3.42
2018-07-20T11:13:44.513Z,3.30
2018-07-20T11:16:12.747Z,3.40
2018-07-20T11:18:41.025Z,3.60
2018-07-20T11:21:09.278Z,3.55
2018-07-20T11:23:37.554Z,3.72
2018-07-20T11:26:06.157Z,3.52
2018-07-20T11:28:34.568Z,3.33
2018-07-20T11:31:02.849Z,4.00
2018-07-20T11:33:31.117Z,3.80
2018-07-20T11:35:59.612Z,3.67
2018-07-20T11:38:27.601Z,3.58
2018-07-20T11:40:55.853Z,3.95
2018-07-20T11:43:24.102Z,3.62
2018-07-20T11:45:52.368Z,3.77
2018-07-20T11:48:20.619Z,3.80
2018-07-20T11:50:48.869Z,3.83
2018-07-20T11:53:17.131Z,3.67
2018-07-20T11:55:45.428Z,3.15
2018-07-20T11:58:13.704Z,3.60
2018-07-20T12:00:42.019Z,4.35
2018-07-20T12:03:10.295Z,4.20
2018-07-20T12:05:38.557Z,4.00
2018-07-20T12:08:06.847Z,4.60
2018-07-20T12:10:35.137Z,3.60
2018-07-20T12:13:06.387Z,3.98
2018-07-20T12:15:34.662Z,3.77
2018-07-20T12:18:02.962Z,3.80
2018-07-20T12:20:31.230Z,4.00
2018-07-20T12:22:59.495Z,3.90
2018-07-20T12:25:27.767Z,3.83
2018-07-20T12:27:56.027Z,3.65
2018-07-20T12:30:24.286Z,3.70
2018-07-20T12:32:52.546Z,3.60
2018-07-20T12:35:20.811Z,3.67
2018-07-20T12:37:49.083Z,3.80
2018-07-20T12:40:17.343Z,3.65
2018-07-20T12:42:45.611Z,3.75
2018-07-20T12:45:13.910Z,3.58
2018-07-20T12:47:42.195Z,3.50
2018-07-20T12:50:10.253Z,4.00
2018-07-20T12:52:38.499Z,3.67
2018-07-20T12:55:06.770Z,3.10
2018-07-20T12:57:35.063Z,3.60
2018-07-20T13:00:03.379Z,4.03
2018-07-20T13:02:31.666Z,3.95
2018-07-20T13:04:59.936Z,3.67
2018-07-20T13:07:28.194Z,3.77
2018-07-20T13:09:56.470Z,3.98
2018-07-20T13:12:24.751Z,4.00
2018-07-20T13:14:53.019Z,3.72
2018-07-20T13:17:21.274Z,3.75
2018-07-20T13:19:49.582Z,3.83
2018-07-20T13:22:17.856Z,3.55
2018-07-20T13:24:46.119Z,3.85
2018-07-20T13:27:14.445Z,3.92
2018-07-20T13:29:42.730Z,4.00
2018-07-20T13:32:11.002Z,3.58
2018-07-20T13:34:39.260Z,3.83
2018-07-20T13:37:07.572Z,4.00
2018-07-20T13:39:35.846Z,3.95
2018-07-20T13:42:04.134Z,3.80
2018-07-20T13:44:32.442Z,4.20
2018-07-20T13:47:00.727Z,3.92
2018-07-20T13:49:29.011Z,4.12
2018-07-20T13:51:57.275Z,4.12
2018-07-20T13:54:25.539Z,3.75
2018-07-20T13:56:53.827Z,3.75
2018-07-20T13:59:21.842Z,3.72
2018-07-20T14:01:50.130Z,3.90
2018-07-20T14:04:18.401Z,3.87
2018-07-20T14:06:46.684Z,3.65
2018-07-20T14:09:14.948Z,3.67
2018-07-20T14:11:43.312Z,3.92
2018-07-20T14:14:11.591Z,3.92
2018-07-20T14:16:39.897Z,3.77
2018-07-20T14:19:08.176Z,3.90
2018-07-20T14:21:36.454Z,3.87
2018-07-20T14:24:05.059Z,4.00
2018-07-20T14:26:33.383Z,3.65
2018-07-20T14:29:01.623Z,4.10
2018-07-20T14:31:30.034Z,3.70
2018-07-20T14:33:58.325Z,3.92
2018-07-20T14:36:26.738Z,3.83
2018-07-20T14:38:55.083Z,3.83
2018-07-20T14:41:23.350Z,3.77
2018-07-20T14:43:53.851Z,4.20
2018-07-20T14:46:22.154Z,3.85
2018-07-20T14:48:51.148Z,4.25
2018-07-20T14:51:19.950Z,4.17
2018-07-20T14:53:48.839Z,4.45
2018-07-20T14:56:17.844Z,3.40
2018-07-20T14:58:46.626Z,4.45
2018-07-20T15:01:17.330Z,3.92
2018-07-20T15:03:46.084Z,3.95
2018-07-20T15:06:14.929Z,4.12
2018-07-20T15:08:44.786Z,3.98
2018-07-20T15:11:13.657Z,3.42
2018-07-20T15:13:42.040Z,3.65
2018-07-20T15:16:11.012Z,3.90
2018-07-20T15:18:39.541Z,3.95
2018-07-20T15:21:08.690Z,3.80
2018-07-20T15:23:39.449Z,3.95
2018-07-20T15:26:08.632Z,4.37
2018-07-20T15:28:39.717Z,4.22
2018-07-20T15:31:11.094Z,4.20
2018-07-20T15:33:40.146Z,4.40
2018-07-20T15:36:08.860Z,4.15
2018-07-20T15:38:37.650Z,4.15
2018-07-20T15:41:06.476Z,4.33
2018-07-20T15:43:35.339Z,4.10
2018-07-20T15:46:06.564Z,4.17
2018-07-20T15:48:32.758Z,3.67
2018-07-20T15:51:01.630Z,4.60
2018-07-20T15:53:37.770Z,4.10
2018-07-20T15:55:59.093Z,4.20
2018-07-20T15:58:28.061Z,3.95
2018-07-20T16:00:56.734Z,4.10
2018-07-20T16:03:25.615Z,3.95
2018-07-20T16:05:54.536Z,4.20
2018-07-20T16:08:23.382Z,3.90
2018-07-20T16:10:52.096Z,3.80
2018-07-20T16:13:20.895Z,4.20
2018-07-20T16:15:49.601Z,4.20
2018-07-20T16:18:18.517Z,3.75
2018-07-20T16:20:47.505Z,4.33
2018-07-20T16:23:16.233Z,4.30
2018-07-20T16:25:45.078Z,4.08
2018-07-20T16:28:14.246Z,3.87
2018-07-20T16:30:43.045Z,4.10
2018-07-20T16:33:12.862Z,4.20
2018-07-20T16:35:41.703Z,4.00
2018-07-20T16:38:10.425Z,4.00
2018-07-20T16:40:39.144Z,3.95
2018-07-20T16:43:08.070Z,3.95
2018-07-20T16:45:37.640Z,3.95
2018-07-20T16:48:06.588Z,3.77
2018-07-20T16:50:35.623Z,4.33
2018-07-20T16:53:04.375Z,4.62
2018-07-20T16:55:33.435Z,4.70
2018-07-20T16:58:02.121Z,4.00
2018-07-20T17:00:30.737Z,4.62
2018-07-20T17:02:59.446Z,3.98
2018-07-20T17:05:29.780Z,3.60
2018-07-20T17:07:58.524Z,4.35
2018-07-20T17:10:27.399Z,4.05
2018-07-20T17:12:56.580Z,3.90
2018-07-20T17:15:25.469Z,4.22
2018-07-20T17:17:54.409Z,4.10
2018-07-20T17:20:23.105Z,4.12
2018-07-20T17:22:52.108Z,4.40
2018-07-20T17:25:20.441Z,3.60
2018-07-20T17:27:49.585Z,4.33
2018-07-20T17:30:18.339Z,3.98
2018-07-20T17:32:47.386Z,4.78
2018-07-20T17:35:16.949Z,4.10
2018-07-20T17:37:45.829Z,4.15
2018-07-20T17:40:14.693Z,4.03
2018-07-20T17:42:43.930Z,4.00
2018-07-20T17:45:14.109Z,4.00
2018-07-20T17:47:42.804Z,3.98
2018-07-20T17:50:11.708Z,4.28
2018-07-20T17:52:40.435Z,4.10
2018-07-20T17:55:09.145Z,3.70
2018-07-20T17:57:37.846Z,3.60
2018-07-20T18:00:06.714Z,4.00
2018-07-20T18:02:35.633Z,4.00
2018-07-20T18:05:04.286Z,3.80
2018-07-20T18:07:33.017Z,3.87
2018-07-20T18:10:01.435Z,3.93
2018-07-20T18:12:29.747Z,4.23
2018-07-20T18:14:58.091Z,4.30
2018-07-20T18:17:26.378Z,3.97
2018-07-20T18:19:54.772Z,3.97
2018-07-20T18:22:23.063Z,4.70
2018-07-20T18:24:51.315Z,4.30
2018-07-20T18:27:19.847Z,4.00
2018-07-20T18:29:47.995Z,4.23
2018-07-20T18:32:16.253Z,4.30
2018-07-20T18:34:44.326Z,4.17
2018-07-20T18:37:12.574Z,5.00
2018-07-20T18:39:40.832Z,4.03
2018-07-20T18:42:09.244Z,4.20
2018-07-20T18:44:37.234Z,4.40
2018-07-20T18:47:05.409Z,4.30
2018-07-20T18:49:33.682Z,4.40
2018-07-20T18:52:01.964Z,3.93
2018-07-20T18:54:30.371Z,4.60
2018-07-20T18:56:58.643Z,4.13
2018-07-20T18:59:26.898Z,4.20
2018-07-20T19:01:55.161Z,4.70
2018-07-20T19:04:23.503Z,4.83
2018-07-20T19:06:51.754Z,4.77
2018-07-20T19:09:20.028Z,4.70
2018-07-20T19:11:48.417Z,4.90
2018-07-20T19:14:16.682Z,4.50
2018-07-20T19:16:45.066Z,4.77
2018-07-20T19:19:14.024Z,4.73
2018-07-20T19:21:42.208Z,5.07
2018-07-20T19:24:11.195Z,4.67
2018-07-20T19:26:40.018Z,5.30
2018-07-20T19:29:08.818Z,4.83
2018-07-20T19:31:37.505Z,5.80
2018-07-20T19:34:06.276Z,5.40
2018-07-20T19:36:34.969Z,5.37
2018-07-20T19:39:04.430Z,5.60
2018-07-20T19:41:33.229Z,5.50
2018-07-20T19:44:02.312Z,6.00
2018-07-20T19:46:31.063Z,5.83
2018-07-20T19:49:00.762Z,5.90
2018-07-20T19:51:29.102Z,6.00
2018-07-20T19:53:57.568Z,6.03
2018-07-20T19:56:25.931Z,5.70
2018-07-20T19:58:54.378Z,6.13
2018-07-20T20:01:22.691Z,6.07
2018-07-20T20:03:50.989Z,6.10
2018-07-20T20:06:19.864Z,5.90
2018-07-20T20:08:48.619Z,5.57
2018-07-20T20:11:17.298Z,5.53
2018-07-20T20:13:46.084Z,5.87
2018-07-20T20:16:15.930Z,5.67
2018-07-20T20:18:45.696Z,5.30
2018-07-20T20:21:14.731Z,5.23
2018-07-20T20:23:44.790Z,5.73
2018-07-20T20:26:14.139Z,5.07
2018-07-20T20:28:43.728Z,5.70
2018-07-20T20:31:12.789Z,5.47
2018-07-20T20:33:41.658Z,5.90
2018-07-20T20:36:10.380Z,6.00
2018-07-20T20:38:39.306Z,6.10
2018-07-20T20:41:08.079Z,5.80
2018-07-20T20:43:37.106Z,5.53
2018-07-20T20:46:06.268Z,5.70
2018-07-20T20:48:34.740Z,5.90
2018-07-20T20:51:03.088Z,6.03
2018-07-20T20:53:31.401Z,6.03
2018-07-20T20:55:59.657Z,6.30
2018-07-20T20:58:27.962Z,6.27
2018-07-20T21:00:56.245Z,6.80
2018-07-20T21:03:24.542Z,6.67
2018-07-20T21:05:52.806Z,7.20
2018-07-20T21:08:21.126Z,7.23
2018-07-20T21:10:49.389Z,6.77
2018-07-20T21:13:17.758Z,6.90
2018-07-20T21:15:46.029Z,7.03
2018-07-20T21:18:14.458Z,7.23
2018-07-20T21:20:42.782Z,6.63
2018-07-20T21:23:11.047Z,6.90
2018-07-20T21:25:39.381Z,5.97
2018-07-20T21:28:07.629Z,6.83
2018-07-20T21:30:35.926Z,6.70
2018-07-20T21:33:04.192Z,6.53
2018-07-20T21:35:32.206Z,6.90
2018-07-20T21:38:00.476Z,7.50
2018-07-20T21:40:28.891Z,7.40
2018-07-20T21:42:57.154Z,7.07
2018-07-20T21:45:25.464Z,6.20
2018-07-20T21:47:53.667Z,7.20
2018-07-20T21:50:21.925Z,6.20
2018-07-20T21:52:50.325Z,6.80
2018-07-20T21:55:18.581Z,6.80
2018-07-20T21:57:46.838Z,7.10
2018-07-20T22:00:17.506Z,6.37
2018-07-20T22:02:46.132Z,7.03
2018-07-20T22:05:14.518Z,6.53
2018-07-20T22:07:42.997Z,6.97
2018-07-20T22:10:11.278Z,7.07
2018-07-20T22:12:39.634Z,6.90
2018-07-20T22:15:08.749Z,6.60
2018-07-20T22:17:37.090Z,6.97
2018-07-20T22:20:05.957Z,7.10
2018-07-20T22:22:34.656Z,7.27
2018-07-20T22:25:02.967Z,7.03
2018-07-20T22:27:31.257Z,6.73
2018-07-20T22:29:59.815Z,6.97
2018-07-20T22:32:28.071Z,7.97
2018-07-20T22:34:56.373Z,7.53
2018-07-20T22:37:24.704Z,7.83
2018-07-20T22:39:52.968Z,7.50
2018-07-20T22:42:21.250Z,7.63
2018-07-20T22:44:49.522Z,7.07
2018-07-20T22:47:17.804Z,7.03
2018-07-20T22:49:49.135Z,7.03
2018-07-20T22:52:17.446Z,7.20
2018-07-20T22:54:45.715Z,7.33
2018-07-20T22:57:13.999Z,7.57
2018-07-20T22:59:42.408Z,7.70
2018-07-20T23:02:10.753Z,7.70
2018-07-20T23:04:39.019Z,8.13
2018-07-20T23:07:07.285Z,8.20
2018-07-20T23:09:35.541Z,7.73
2018-07-20T23:12:03.823Z,7.63
2018-07-20T23:14:32.129Z,7.80
2018-07-20T23:17:00.390Z,7.33
2018-07-20T23:19:28.662Z,7.27
2018-07-20T23:21:56.985Z,7.60
2018-07-20T23:24:25.257Z,7.93
2018-07-20T23:26:53.519Z,7.63
2018-07-20T23:29:22.122Z,7.87
2018-07-20T23:31:50.341Z,8.23
2018-07-20T23:34:18.598Z,7.70
2018-07-20T23:36:46.856Z,7.67
2018-07-20T23:39:15.111Z,7.90
2018-07-20T23:41:43.382Z,7.73
2018-07-20T23:44:11.645Z,7.43
2018-07-20T23:46:39.922Z,7.47
2018-07-20T23:49:08.198Z,7.87
2018-07-20T23:51:36.455Z,7.37
2018-07-20T23:54:04.717Z,8.10
2018-07-20T23:56:33.137Z,8.07
2018-07-20T23:59:01.414Z,7.70
